Time;durP1;ratioP1;P1;durP2;ratioP2;P2;SDS_P1;SDS_P2;PMS_P1;PMS_P2;Temp;Humidity;BMP_temperature;BMP_pressure;BME280_temperature;BME280_humidity;BME280_pressure;Samples;Min_cycle;Max_cycle;Signal;HPM_P1;HPM_P2
2022/05/09 00:01:14;;;;;;;12.07;6.53;;;12.60;99.90;;;;;;5074805;28;20223;-86
2022/05/09 00:03:42;;;;;;;12.27;6.00;;;12.40;99.90;;;;;;5074461;28;20210;-85
2022/05/09 00:06:11;;;;;;;14.90;5.70;;;12.40;99.90;;;;;;5074605;28;20285;-85
2022/05/09 00:08:44;;;;;;;12.77;5.93;;;12.30;99.90;;;;;;5074481;28;20199;-85
2022/05/09 00:11:17;;;;;;;11.13;5.90;;;12.20;99.90;;;;;;5074131;28;20258;-86
2022/05/09 00:13:50;;;;;;;13.60;6.10;;;12.20;99.90;;;;;;5074245;28;20221;-85
2022/05/09 00:16:17;;;;;;;11.07;5.93;;;12.30;99.90;;;;;;5074138;28;20646;-84
2022/05/09 00:18:46;;;;;;;13.97;6.10;;;12.20;99.90;;;;;;5074104;28;20206;-86
2022/05/09 00:21:15;;;;;;;10.43;5.50;;;12.30;99.90;;;;;;5074231;28;20194;-85
2022/05/09 00:23:43;;;;;;;12.17;6.13;;;12.10;99.90;;;;;;5073138;28;20260;-84
2022/05/09 00:26:09;;;;;;;13.73;6.30;;;12.10;99.90;;;;;;5073923;28;20217;-86
2022/05/09 00:28:38;;;;;;;12.37;6.00;;;12.00;99.90;;;;;;5074083;28;20286;-86
2022/05/09 00:31:07;;;;;;;9.93;5.90;;;12.00;99.90;;;;;;5073888;28;20608;-86
2022/05/09 00:33:35;;;;;;;10.13;6.23;;;12.10;99.90;;;;;;5073878;28;20211;-84
2022/05/09 00:36:03;;;;;;;11.37;5.97;;;12.20;99.90;;;;;;5074057;28;20206;-85
2022/05/09 00:38:33;;;;;;;15.40;6.20;;;12.20;99.90;;;;;;5073877;28;20190;-85
2022/05/09 00:43:44;;;;;;;10.57;6.27;;;12.10;99.90;;;;;;5073515;28;20255;-85
2022/05/09 00:46:11;;;;;;;10.53;6.00;;;12.10;99.90;;;;;;5072828;28;20209;-85
2022/05/09 00:48:38;;;;;;;12.07;5.93;;;12.20;99.90;;;;;;5073547;28;20232;-84
2022/05/09 00:51:08;;;;;;;13.83;6.57;;;12.20;99.90;;;;;;5074676;28;20218;-85
2022/05/09 00:53:42;;;;;;;12.57;5.97;;;12.30;99.90;;;;;;5073730;28;20206;-85
2022/05/09 00:56:17;;;;;;;13.57;6.33;;;12.20;99.90;;;;;;5073396;28;20207;-85
2022/05/09 00:58:50;;;;;;;9.60;5.90;;;12.20;99.90;;;;;;5073848;28;20205;-85
2022/05/09 01:01:18;;;;;;;12.10;5.73;;;12.30;99.90;;;;;;5073582;28;20286;-85
2022/05/09 01:03:49;;;;;;;12.33;6.43;;;12.30;99.90;;;;;;5073472;28;20566;-85
2022/05/09 01:06:17;;;;;;;14.27;6.67;;;12.30;99.90;;;;;;5073622;28;20202;-85
2022/05/09 01:08:45;;;;;;;13.70;7.03;;;12.10;99.90;;;;;;5073777;28;20563;-86
2022/05/09 01:11:17;;;;;;;14.93;5.93;;;12.20;99.90;;;;;;5072431;28;20249;-86
2022/05/09 01:13:49;;;;;;;10.30;6.27;;;12.10;99.90;;;;;;5073744;28;20201;-86
2022/05/09 01:16:19;;;;;;;13.20;6.47;;;12.00;99.90;;;;;;5073229;28;20677;-85
2022/05/09 01:18:48;;;;;;;13.50;5.80;;;11.90;99.90;;;;;;5073261;28;20194;-86
2022/05/09 01:21:38;;;;;;;12.60;6.40;;;11.90;99.90;;;;;;5073353;28;20555;-85
2022/05/09 01:24:15;;;;;;;13.27;6.13;;;12.00;99.90;;;;;;5073475;28;20228;-86
2022/05/09 01:26:42;;;;;;;13.83;6.60;;;11.90;99.90;;;;;;5073187;28;20215;-84
2022/05/09 01:29:14;;;;;;;16.43;6.60;;;11.90;99.90;;;;;;5073476;28;20206;-85
2022/05/09 01:31:43;;;;;;;11.67;6.40;;;11.90;99.90;;;;;;5073303;28;20209;-86
2022/05/09 01:34:17;;;;;;;12.17;7.10;;;11.80;99.90;;;;;;5073124;28;20680;-86
2022/05/09 01:36:51;;;;;;;14.10;6.83;;;11.80;99.90;;;;;;5073199;28;20661;-84
2022/05/09 01:39:19;;;;;;;11.60;6.43;;;11.90;99.90;;;;;;5078628;28;20200;-84
2022/05/09 01:41:48;;;;;;;15.47;7.10;;;12.00;99.90;;;;;;5078593;28;20209;-86
2022/05/09 01:44:16;;;;;;;13.87;7.00;;;11.90;99.90;;;;;;5077157;28;20650;-85
2022/05/09 01:49:32;;;;;;;13.97;6.57;;;11.90;99.90;;;;;;5075616;28;20648;-85
2022/05/09 01:52:02;;;;;;;15.10;6.73;;;11.70;99.90;;;;;;5075409;28;20258;-85
2022/05/09 01:54:29;;;;;;;16.10;7.17;;;11.70;99.90;;;;;;5077487;28;20206;-85
2022/05/09 01:56:56;;;;;;;19.47;7.37;;;11.70;99.90;;;;;;5077255;28;20201;-85
2022/05/09 01:59:24;;;;;;;15.00;7.03;;;11.70;99.90;;;;;;5077313;28;20202;-85
2022/05/09 02:01:55;;;;;;;16.80;7.80;;;11.70;99.90;;;;;;5076212;28;20202;-85
2022/05/09 02:04:24;;;;;;;19.07;8.63;;;11.80;99.90;;;;;;5073638;28;20214;-86
2022/05/09 02:06:54;;;;;;;17.07;7.77;;;11.70;99.90;;;;;;5073285;28;20201;-86
2022/05/09 02:09:29;;;;;;;15.57;7.77;;;11.70;99.90;;;;;;5072812;28;20553;-86
2022/05/09 02:11:56;;;;;;;13.90;7.37;;;11.60;99.90;;;;;;5073382;28;20569;-86
2022/05/09 02:14:26;;;;;;;21.33;8.33;;;11.60;99.90;;;;;;5079255;28;20206;-86
2022/05/09 02:16:59;;;;;;;17.77;9.07;;;11.70;99.90;;;;;;5073829;28;20217;-86
2022/05/09 02:19:26;;;;;;;23.60;8.57;;;11.60;99.90;;;;;;5071326;28;20202;-86
2022/05/09 02:21:53;;;;;;;23.10;8.30;;;11.70;99.90;;;;;;5072264;28;20206;-86
2022/05/09 02:24:30;;;;;;;19.83;8.37;;;11.60;99.90;;;;;;5076519;28;20205;-86
2022/05/09 02:27:00;;;;;;;14.73;7.83;;;11.60;99.90;;;;;;5076803;28;20202;-86
2022/05/09 02:29:31;;;;;;;15.70;6.80;;;11.50;99.90;;;;;;5076437;28;20205;-86
2022/05/09 02:32:00;;;;;;;14.63;7.00;;;11.50;99.90;;;;;;5076389;28;20210;-86
2022/05/09 02:34:27;;;;;;;18.30;7.90;;;11.50;99.90;;;;;;5076430;28;20216;-86
2022/05/09 02:36:53;;;;;;;14.00;8.50;;;11.40;99.90;;;;;;5075997;28;20201;-85
2022/05/09 02:39:21;;;;;;;12.07;7.87;;;11.40;99.90;;;;;;5076363;28;20194;-86
2022/05/09 02:41:50;;;;;;;18.13;9.57;;;11.20;99.90;;;;;;5075091;28;20424;-86
2022/05/09 02:44:16;;;;;;;13.30;8.40;;;11.20;99.90;;;;;;5075985;28;20214;-83
2022/05/09 02:46:43;;;;;;;14.83;8.53;;;11.10;99.90;;;;;;5075967;28;20205;-86
2022/05/09 02:49:13;;;;;;;18.57;8.20;;;11.10;99.90;;;;;;5076160;28;20286;-86
2022/05/09 02:51:40;;;;;;;15.37;8.37;;;11.10;99.90;;;;;;5075642;28;20209;-86
2022/05/09 02:54:09;;;;;;;17.30;8.60;;;11.10;99.90;;;;;;5075952;28;20194;-86
2022/05/09 02:56:35;;;;;;;12.97;8.50;;;11.00;99.90;;;;;;5075709;28;20193;-85
2022/05/09 02:59:07;;;;;;;14.50;7.87;;;11.00;99.90;;;;;;5075740;28;20206;-85
2022/05/09 03:01:34;;;;;;;11.77;8.73;;;11.00;99.90;;;;;;5075609;28;20225;-85
2022/05/09 03:06:48;;;;;;;14.43;8.83;;;11.00;99.90;;;;;;5075655;28;20247;-85
2022/05/09 03:09:15;;;;;;;18.10;9.30;;;10.90;99.90;;;;;;5075888;28;20239;-86
2022/05/09 03:11:43;;;;;;;13.90;8.83;;;10.90;99.90;;;;;;5075199;28;20206;-85
2022/05/09 03:14:11;;;;;;;16.77;9.03;;;10.90;99.90;;;;;;5075548;28;20208;-84
2022/05/09 03:16:41;;;;;;;14.43;8.67;;;10.80;99.90;;;;;;5075464;28;20202;-84
2022/05/09 03:19:08;;;;;;;13.00;8.77;;;10.80;99.90;;;;;;5075542;28;20201;-85
2022/05/09 03:21:38;;;;;;;16.07;8.70;;;10.70;99.90;;;;;;5074821;28;20202;-85
2022/05/09 03:24:07;;;;;;;14.27;8.13;;;10.80;99.90;;;;;;5075643;28;20244;-84
2022/05/09 03:26:34;;;;;;;17.93;9.50;;;10.80;99.90;;;;;;5075217;28;20202;-84
2022/05/09 03:29:01;;;;;;;17.70;10.02;;;10.80;99.90;;;;;;5074765;28;20428;-83
2022/05/09 03:31:35;;;;;;;15.53;9.23;;;10.80;99.90;;;;;;5075095;28;20694;-85
2022/05/09 03:34:03;;;;;;;18.60;9.23;;;10.80;99.90;;;;;;5074069;28;20212;-85
2022/05/09 03:36:32;;;;;;;13.33;8.37;;;10.80;99.90;;;;;;5074964;28;20198;-83
2022/05/09 03:38:59;;;;;;;16.03;9.23;;;10.80;99.90;;;;;;5075299;28;20198;-83
2022/05/09 03:41:29;;;;;;;15.00;8.97;;;10.80;99.90;;;;;;5075292;28;20531;-85
2022/05/09 03:43:56;;;;;;;18.90;9.20;;;10.80;99.90;;;;;;5075270;28;20252;-84
2022/05/09 03:46:29;;;;;;;15.90;8.53;;;10.70;99.90;;;;;;5074741;28;20581;-85
2022/05/09 03:48:57;;;;;;;14.27;8.57;;;10.80;99.90;;;;;;5074740;28;20202;-85
2022/05/09 03:51:24;;;;;;;14.77;8.97;;;10.70;99.90;;;;;;5074800;28;20217;-84
2022/05/09 03:53:51;;;;;;;12.03;8.33;;;10.70;99.90;;;;;;5074894;28;20197;-84
2022/05/09 03:56:18;;;;;;;16.63;8.30;;;10.70;99.90;;;;;;5074556;28;20208;-85
2022/05/09 03:58:45;;;;;;;16.83;8.57;;;10.70;99.90;;;;;;5074883;28;20194;-83
2022/05/09 04:01:13;;;;;;;14.47;8.37;;;10.60;99.90;;;;;;5074533;28;20715;-84
2022/05/09 04:03:40;;;;;;;20.33;8.97;;;10.50;99.90;;;;;;5074221;28;20209;-83
2022/05/09 04:06:16;;;;;;;19.27;8.53;;;10.50;99.90;;;;;;5074783;28;20209;-86
2022/05/09 04:08:45;;;;;;;14.07;8.37;;;10.50;99.90;;;;;;5074847;28;20221;-84
2022/05/09 04:11:12;;;;;;;12.53;8.13;;;10.50;99.90;;;;;;5074615;28;20224;-85
2022/05/09 04:13:41;;;;;;;13.23;8.70;;;10.50;99.90;;;;;;5074467;28;20209;-85
2022/05/09 04:18:55;;;;;;;17.40;10.68;;;10.40;99.90;;;;;;5072820;28;20423;-82
2022/05/09 04:21:27;;;;;;;16.07;9.37;;;10.50;99.90;;;;;;5074219;28;20237;-83
2022/05/09 04:23:58;;;;;;;14.77;9.53;;;10.50;99.90;;;;;;5074023;28;20569;-85
2022/05/09 04:26:26;;;;;;;14.70;9.00;;;10.40;99.90;;;;;;5074322;28;20198;-84
2022/05/09 04:28:53;;;;;;;12.67;8.77;;;10.40;99.90;;;;;;5073955;28;20213;-83
2022/05/09 04:31:22;;;;;;;19.23;7.80;;;10.20;99.90;;;;;;5073904;28;20590;-84
2022/05/09 04:33:51;;;;;;;15.97;8.20;;;10.20;99.90;;;;;;5073412;28;20248;-85
2022/05/09 04:36:18;;;;;;;12.10;9.20;;;10.30;99.90;;;;;;5074214;28;20556;-85
2022/05/09 04:38:49;;;;;;;17.93;8.67;;;10.50;99.90;;;;;;5073592;28;20212;-83
2022/05/09 04:41:19;;;;;;;19.73;9.57;;;10.40;99.90;;;;;;5073821;28;20436;-84
2022/05/09 04:43:46;;;;;;;13.30;8.63;;;10.60;99.90;;;;;;5073778;28;20553;-85
2022/05/09 04:46:20;;;;;;;19.60;8.20;;;10.50;99.90;;;;;;5073594;28;20202;-85
2022/05/09 04:48:52;;;;;;;15.90;8.67;;;10.30;99.90;;;;;;5073449;28;20855;-85
2022/05/09 04:51:19;;;;;;;18.03;9.17;;;10.30;99.90;;;;;;5073784;28;20213;-85
2022/05/09 04:53:49;;;;;;;17.10;8.43;;;10.30;99.90;;;;;;5073671;28;20209;-84
2022/05/09 04:56:17;;;;;;;15.33;8.37;;;10.50;99.90;;;;;;5073831;28;20565;-85
2022/05/09 04:58:50;;;;;;;18.83;8.90;;;10.30;99.90;;;;;;5073516;28;20198;-84
2022/05/09 05:01:17;;;;;;;9.77;7.83;;;10.40;99.90;;;;;;5076259;28;20704;-83
2022/05/09 05:03:45;;;;;;;19.73;8.50;;;10.40;99.90;;;;;;5072754;28;20269;-85
2022/05/09 05:06:12;;;;;;;15.37;9.80;;;10.40;99.90;;;;;;5071901;28;20506;-84
2022/05/09 05:08:38;;;;;;;14.40;8.27;;;10.40;99.90;;;;;;5073722;28;20205;-84
2022/05/09 05:11:12;;;;;;;12.27;8.10;;;10.50;99.90;;;;;;5073541;28;20226;-83
2022/05/09 05:13:45;;;;;;;17.93;8.30;;;10.80;99.90;;;;;;5073589;28;20186;-83
2022/05/09 05:16:12;;;;;;;15.07;8.07;;;10.90;99.90;;;;;;5073029;28;20551;-84
2022/05/09 05:18:39;;;;;;;13.43;7.80;;;11.00;99.90;;;;;;5073287;28;20194;-85
2022/05/09 05:21:11;;;;;;;15.00;7.63;;;11.10;99.90;;;;;;5073441;28;20198;-83
2022/05/09 05:23:43;;;;;;;18.60;7.83;;;11.20;99.90;;;;;;5073314;28;20668;-85
2022/05/09 05:26:13;;;;;;;14.90;7.97;;;11.20;99.90;;;;;;5073413;28;20272;-83
2022/05/09 05:28:40;;;;;;;18.30;7.73;;;10.90;99.90;;;;;;5073664;28;20201;-85
2022/05/09 05:31:16;;;;;;;14.98;8.50;;;10.80;99.90;;;;;;5071991;28;20452;-83
2022/05/09 05:33:45;;;;;;;17.00;8.33;;;11.50;99.90;;;;;;5072012;28;20645;-82
2022/05/09 05:36:12;;;;;;;19.77;9.17;;;11.40;99.90;;;;;;5073440;28;20244;-84
2022/05/09 05:38:40;;;;;;;20.27;8.67;;;11.20;99.90;;;;;;5073346;28;20233;-84
2022/05/09 05:41:08;;;;;;;14.83;7.90;;;11.40;99.90;;;;;;5072965;28;20206;-83
2022/05/09 05:43:37;;;;;;;13.40;7.70;;;11.40;99.90;;;;;;5072953;28;20190;-84
2022/05/09 05:46:03;;;;;;;20.70;7.80;;;11.50;99.90;;;;;;5072929;28;20675;-85
2022/05/09 05:48:36;;;;;;;14.97;7.57;;;11.60;99.90;;;;;;5073361;28;20194;-84
2022/05/09 05:51:05;;;;;;;11.83;7.00;;;11.60;99.90;;;;;;5073121;28;20236;-85
2022/05/09 05:53:34;;;;;;;19.87;7.73;;;11.80;99.90;;;;;;5073351;28;20603;-85
2022/05/09 05:56:04;;;;;;;16.37;7.70;;;11.90;99.90;;;;;;5073252;28;20197;-83
2022/05/09 05:58:31;;;;;;;14.67;7.70;;;12.10;99.90;;;;;;5076180;28;20206;-84
2022/05/09 06:00:59;;;;;;;15.33;7.37;;;12.20;99.90;;;;;;5076458;28;20240;-84
2022/05/09 06:03:28;;;;;;;17.57;7.97;;;12.20;99.90;;;;;;5077162;28;20198;-84
2022/05/09 06:06:01;;;;;;;13.13;7.73;;;12.30;99.90;;;;;;5076651;28;20206;-83
2022/05/09 06:08:29;;;;;;;21.27;7.87;;;12.30;99.90;;;;;;5077066;28;20562;-84
2022/05/09 06:10:56;;;;;;;14.63;7.23;;;12.40;99.90;;;;;;5076728;28;20231;-84
2022/05/09 06:13:23;;;;;;;13.87;7.37;;;12.40;99.90;;;;;;5076593;28;20202;-83
2022/05/09 06:15:51;;;;;;;15.23;7.00;;;12.60;99.90;;;;;;5077329;28;20208;-83
2022/05/09 06:18:22;;;;;;;11.30;7.00;;;12.60;99.90;;;;;;5077150;28;20575;-84
2022/05/09 06:20:55;;;;;;;13.43;6.80;;;12.70;99.90;;;;;;5076619;28;20605;-84
2022/05/09 06:23:23;;;;;;;15.73;7.23;;;12.80;99.90;;;;;;5076432;28;20210;-83
2022/05/09 06:25:50;;;;;;;14.63;7.53;;;12.90;99.90;;;;;;5076407;28;20192;-83
2022/05/09 06:28:19;;;;;;;12.33;7.37;;;13.00;99.90;;;;;;5076338;28;20202;-84
2022/05/09 06:30:48;;;;;;;10.43;6.80;;;13.10;99.90;;;;;;5076381;28;20196;-84
2022/05/09 06:33:23;;;;;;;13.67;7.20;;;13.20;99.90;;;;;;5076448;28;20209;-84
2022/05/09 06:35:55;;;;;;;15.40;7.03;;;13.20;99.90;;;;;;5077207;28;20194;-84
2022/05/09 06:38:27;;;;;;;15.50;7.40;;;13.30;99.90;;;;;;5096660;28;20214;-83
2022/05/09 06:41:01;;;;;;;11.73;6.80;;;13.20;99.90;;;;;;5096712;28;20209;-84
2022/05/09 06:43:28;;;;;;;15.60;7.57;;;13.30;99.90;;;;;;5095672;28;20434;-83
2022/05/09 06:45:58;;;;;;;12.40;6.87;;;13.40;99.90;;;;;;5096356;28;20202;-83
2022/05/09 06:48:32;;;;;;;16.07;6.80;;;13.40;99.90;;;;;;5096468;28;20223;-83
2022/05/09 06:51:02;;;;;;;21.17;6.53;;;13.70;99.90;;;;;;5095952;28;20221;-83
2022/05/09 06:53:34;;;;;;;14.03;6.87;;;14.00;99.90;;;;;;5096069;28;20193;-83
2022/05/09 06:56:03;;;;;;;10.03;6.60;;;14.00;99.90;;;;;;5096178;28;20205;-83
2022/05/09 06:58:35;;;;;;;13.23;7.10;;;14.20;99.90;;;;;;5095923;28;20233;-84
2022/05/09 07:01:12;;;;;;;8.83;6.70;;;14.40;99.90;;;;;;5095527;28;20230;-83
2022/05/09 07:03:41;;;;;;;16.27;6.67;;;14.60;99.90;;;;;;5095833;28;20189;-83
2022/05/09 07:06:08;;;;;;;15.50;6.80;;;14.60;99.90;;;;;;5095634;28;20687;-83
2022/05/09 07:08:35;;;;;;;14.03;6.17;;;14.50;99.90;;;;;;5093988;28;20215;-83
2022/05/09 07:11:03;;;;;;;12.90;6.37;;;14.40;99.90;;;;;;5083692;28;20227;-83
2022/05/09 07:13:31;;;;;;;11.03;6.03;;;14.70;99.90;;;;;;5078265;28;20647;-83
2022/05/09 07:15:59;;;;;;;13.90;7.03;;;14.90;99.90;;;;;;5095784;28;20250;-82
2022/05/09 07:18:28;;;;;;;14.70;7.37;;;15.10;99.90;;;;;;5095732;28;20201;-82
2022/05/09 07:20:59;;;;;;;13.27;6.57;;;15.20;99.90;;;;;;5095333;28;20687;-84
2022/05/09 07:23:28;;;;;;;14.40;6.80;;;15.10;99.90;;;;;;5095444;28;20514;-82
2022/05/09 07:25:56;;;;;;;12.87;6.93;;;15.10;99.90;;;;;;5095418;28;20209;-82
2022/05/09 07:28:23;;;;;;;21.90;7.67;;;15.10;99.90;;;;;;5095151;28;20241;-83
2022/05/09 07:30:50;;;;;;;16.95;8.30;;;15.40;99.90;;;;;;5094308;28;20427;-83
2022/05/09 07:33:19;;;;;;;15.13;7.23;;;15.60;99.90;;;;;;5095021;28;20546;-83
2022/05/09 07:35:46;;;;;;;12.50;7.00;;;15.70;99.90;;;;;;5095148;28;20205;-83
2022/05/09 07:38:15;;;;;;;16.37;7.23;;;15.90;99.90;;;;;;5095112;28;20680;-83
2022/05/09 07:40:44;;;;;;;16.50;7.87;;;16.00;99.90;;;;;;5094471;28;20206;-82
2022/05/09 07:43:14;;;;;;;13.40;6.80;;;16.30;99.90;;;;;;5095209;28;20203;-83
2022/05/09 07:45:41;;;;;;;14.17;6.37;;;16.10;99.90;;;;;;5091863;28;20229;-83
2022/05/09 07:48:09;;;;;;;11.87;6.10;;;16.30;99.90;;;;;;5094527;28;20190;-83
2022/05/09 07:50:36;;;;;;;12.07;5.90;;;16.30;99.90;;;;;;5094864;28;20293;-83
2022/05/09 07:53:09;;;;;;;17.70;6.37;;;16.40;99.90;;;;;;5094563;28;20231;-84
2022/05/09 07:55:39;;;;;;;10.87;5.37;;;16.50;99.90;;;;;;5094804;28;20200;-84
2022/05/09 07:58:09;;;;;;;11.83;5.80;;;16.60;99.90;;;;;;5094950;28;20223;-84
2022/05/09 08:00:36;;;;;;;9.13;5.13;;;16.80;99.90;;;;;;5094996;28;20228;-85
2022/05/09 08:03:04;;;;;;;12.63;5.67;;;17.00;99.90;;;;;;5094478;28;20580;-84
2022/05/09 08:05:31;;;;;;;11.77;5.07;;;17.10;99.90;;;;;;5093435;28;20212;-84
2022/05/09 08:07:58;;;;;;;9.90;5.80;;;17.30;99.90;;;;;;5079781;28;20198;-84
2022/05/09 08:10:25;;;;;;;12.33;5.43;;;17.40;99.90;;;;;;5080865;28;20194;-84
2022/05/09 08:12:53;;;;;;;14.87;5.60;;;17.60;99.90;;;;;;5082532;28;20672;-84
2022/05/09 08:15:21;;;;;;;16.37;5.30;;;17.50;99.90;;;;;;5081297;28;20198;-84
2022/05/09 08:17:49;;;;;;;10.97;4.80;;;17.60;99.90;;;;;;5082636;28;20205;-84
2022/05/09 08:20:17;;;;;;;12.53;4.63;;;17.60;99.90;;;;;;5085225;28;20194;-84
2022/05/09 08:22:45;;;;;;;13.93;4.93;;;17.70;99.90;;;;;;5083312;28;20197;-84
2022/05/09 08:25:13;;;;;;;8.27;4.03;;;18.00;99.90;;;;;;5085653;28;20228;-84
2022/05/09 08:27:41;;;;;;;13.93;4.13;;;18.30;99.90;;;;;;5074194;28;20554;-80
2022/05/09 08:30:12;;;;;;;8.60;4.20;;;18.60;99.90;;;;;;5080909;28;20652;-83
2022/05/09 08:32:39;;;;;;;9.30;4.30;;;18.70;99.90;;;;;;5093644;28;20751;-83
2022/05/09 08:35:08;;;;;;;7.87;3.93;;;18.90;99.90;;;;;;5094197;28;20211;-85
2022/05/09 08:37:35;;;;;;;8.80;3.73;;;19.20;99.90;;;;;;5094048;28;20740;-85
2022/05/09 08:40:02;;;;;;;12.80;3.47;;;19.30;99.90;;;;;;5093946;28;20308;-84
2022/05/09 08:42:41;;;;;;;6.27;3.27;;;19.50;99.90;;;;;;5094004;28;20193;-83
2022/05/09 08:45:28;;;;;;;9.00;3.70;;;19.70;99.90;;;;;;5093720;28;20209;-85
2022/05/09 08:48:16;;;;;;;9.27;2.60;;;19.40;99.90;;;;;;5093650;28;20216;-83
2022/05/09 08:50:55;;;;;;;6.40;2.67;;;19.70;99.90;;;;;;5093892;28;20204;-85
2022/05/09 08:53:24;;;;;;;3.83;2.57;;;19.70;99.90;;;;;;5093466;28;20228;-86
2022/05/09 08:55:52;;;;;;;6.00;3.07;;;19.60;99.90;;;;;;5094363;28;20216;-83
2022/05/09 08:58:37;;;;;;;6.27;2.70;;;19.80;99.90;;;;;;5093653;28;20648;-85
2022/05/09 09:01:12;;;;;;;6.43;2.63;;;19.90;99.90;;;;;;5093820;28;20263;-85
2022/05/09 09:03:43;;;;;;;6.53;2.50;;;19.90;99.90;;;;;;5093777;28;20213;-84
2022/05/09 09:06:15;;;;;;;7.10;3.17;;;19.90;99.90;;;;;;5093863;28;20631;-84
2022/05/09 09:08:58;;;;;;;3.93;2.17;;;20.00;99.90;;;;;;5093939;28;20242;-84
2022/05/09 09:11:37;;;;;;;6.27;2.13;;;20.20;99.90;;;;;;5093782;28;20209;-85
2022/05/09 09:14:11;;;;;;;5.53;1.87;;;20.10;99.90;;;;;;5093600;28;20201;-84
2022/05/09 09:16:59;;;;;;;5.30;2.00;;;20.00;99.50;;;;;;5093781;28;20210;-84
2022/05/09 09:19:40;;;;;;;4.73;1.90;;;20.00;98.80;;;;;;5093878;28;20223;-84
2022/05/09 09:22:18;;;;;;;4.23;2.20;;;19.90;98.80;;;;;;5093112;28;20185;-84
2022/05/09 09:25:11;;;;;;;11.43;2.80;;;20.00;99.70;;;;;;5093479;28;20235;-83
2022/05/09 09:27:43;;;;;;;6.18;2.80;;;20.10;99.90;;;;;;5092156;28;20932;-83
2022/05/09 09:30:13;;;;;;;7.87;2.43;;;20.40;99.80;;;;;;5093109;28;20205;-83
2022/05/09 09:32:44;;;;;;;8.30;2.57;;;20.30;99.30;;;;;;5094999;28;20229;-82
2022/05/09 09:35:18;;;;;;;5.37;2.20;;;20.20;99.10;;;;;;5097318;28;20192;-83
2022/05/09 09:37:50;;;;;;;6.43;2.00;;;20.10;98.90;;;;;;5097459;28;20201;-83
2022/05/09 09:40:17;;;;;;;7.90;2.77;;;20.50;99.20;;;;;;5097601;28;20189;-85
2022/05/09 09:42:44;;;;;;;5.33;2.30;;;20.30;98.80;;;;;;5097463;28;20201;-84
2022/05/09 09:45:28;;;;;;;4.60;2.17;;;20.50;99.70;;;;;;5097303;28;20245;-83
2022/05/09 09:48:10;;;;;;;6.93;2.13;;;20.70;98.60;;;;;;5097686;28;20200;-83
2022/05/09 09:50:37;;;;;;;6.22;2.42;;;20.70;98.50;;;;;;5096603;28;20431;-85
2022/05/09 09:53:07;;;;;;;8.13;3.63;;;20.80;98.10;;;;;;5096700;28;20233;-83
2022/05/09 09:55:36;;;;;;;4.50;1.90;;;21.00;99.00;;;;;;5097305;28;20251;-84
2022/05/09 09:58:21;;;;;;;5.27;2.40;;;21.10;97.70;;;;;;5097366;28;20189;-84
2022/05/09 10:01:01;;;;;;;3.87;2.00;;;20.80;97.40;;;;;;5097114;28;20225;-83
2022/05/09 10:03:32;;;;;;;3.47;2.13;;;20.70;97.40;;;;;;5097158;28;20239;-83
2022/05/09 10:05:59;;;;;;;6.07;2.33;;;20.60;97.20;;;;;;5096914;28;20186;-85
2022/05/09 10:08:34;;;;;;;6.87;2.07;;;20.80;97.20;;;;;;5097625;28;20201;-84
2022/05/09 10:11:07;;;;;;;4.07;1.90;;;20.90;97.60;;;;;;5097041;28;20216;-84
2022/05/09 10:13:40;;;;;;;4.95;2.30;;;20.80;97.50;;;;;;5096568;28;20442;-85
2022/05/09 10:16:11;;;;;;;5.63;2.23;;;20.90;97.50;;;;;;5096829;28;20261;-85
2022/05/09 10:18:40;;;;;;;3.83;2.20;;;20.90;97.00;;;;;;5097307;28;20203;-83
2022/05/09 10:21:17;;;;;;;5.13;2.47;;;20.80;97.40;;;;;;5096484;28;20214;-85
2022/05/09 10:26:37;;;;;;;6.07;2.40;;;20.60;97.20;;;;;;5096707;28;20222;-84
2022/05/09 10:29:15;;;;;;;9.17;2.30;;;20.80;97.70;;;;;;5096771;28;20205;-86
2022/05/09 10:31:47;;;;;;;7.23;2.10;;;21.10;97.90;;;;;;5096698;28;20213;-83
2022/05/09 10:34:19;;;;;;;3.67;1.90;;;21.30;97.70;;;;;;5097080;28;20210;-85
2022/05/09 10:36:51;;;;;;;5.13;1.80;;;21.50;97.20;;;;;;5096889;28;20206;-83
2022/05/09 10:39:23;;;;;;;4.63;2.43;;;21.60;97.20;;;;;;5096834;28;20195;-84
2022/05/09 10:41:53;;;;;;;6.77;2.40;;;21.70;96.40;;;;;;5096779;28;20215;-85
2022/05/09 10:44:29;;;;;;;8.73;2.60;;;21.50;96.50;;;;;;5095352;28;20675;-83
2022/05/09 10:47:01;;;;;;;5.00;2.33;;;21.50;96.60;;;;;;5090465;28;20411;-85
2022/05/09 10:49:45;;;;;;;5.00;2.13;;;21.50;96.30;;;;;;5090993;28;20197;-85
2022/05/09 10:52:31;;;;;;;6.60;2.60;;;21.40;96.80;;;;;;5084911;28;20236;-85
2022/05/09 10:55:04;;;;;;;5.57;2.50;;;21.30;96.70;;;;;;5089755;28;20194;-85
2022/05/09 10:57:39;;;;;;;9.93;2.80;;;21.20;96.80;;;;;;5086791;28;20781;-85
2022/05/09 11:00:12;;;;;;;7.20;2.50;;;21.20;97.00;;;;;;5088598;28;20398;-87
2022/05/09 11:02:43;;;;;;;5.30;2.37;;;21.40;97.20;;;;;;5096313;28;20246;-87
2022/05/09 11:05:11;;;;;;;4.87;1.90;;;21.90;97.30;;;;;;5096360;28;20208;-87
2022/05/09 11:07:43;;;;;;;7.60;2.20;;;22.00;96.70;;;;;;5095323;28;20249;-87
2022/05/09 11:10:28;;;;;;;6.07;2.30;;;22.20;97.40;;;;;;5096242;28;20204;-87
2022/05/09 11:13:15;;;;;;;7.50;2.23;;;22.40;96.90;;;;;;5095908;28;20423;-87
2022/05/09 11:15:55;;;;;;;9.00;2.63;;;22.50;97.60;;;;;;5096307;28;20306;-87
2022/05/09 11:18:36;;;;;;;8.87;2.97;;;22.50;96.20;;;;;;5095995;28;20208;-87
2022/05/09 11:21:19;;;;;;;5.63;2.73;;;22.40;96.90;;;;;;5094519;28;20568;-87
2022/05/09 11:23:54;;;;;;;5.87;3.20;;;22.60;97.20;;;;;;5096140;28;20207;-86
2022/05/09 11:26:29;;;;;;;7.10;2.83;;;22.40;96.00;;;;;;5095843;28;20261;-87
2022/05/09 11:29:26;;;;;;;8.03;2.53;;;22.40;96.70;;;;;;5095800;28;20708;-87
2022/05/09 11:32:23;;;;;;;10.90;4.23;;;22.60;96.10;;;;;;5074051;28;20201;-87
2022/05/09 11:35:18;;;;;;;6.90;3.23;;;22.60;97.70;;;;;;5092422;28;20201;-85
2022/05/09 11:37:59;;;;;;;6.47;2.93;;;22.60;95.90;;;;;;5093031;28;20204;-86
2022/05/09 11:40:37;;;;;;;6.70;3.10;;;22.40;96.10;;;;;;5094678;28;20196;-87
2022/05/09 11:43:32;;;;;;;10.13;3.03;;;22.30;96.50;;;;;;5095437;28;20231;-87
2022/05/09 11:46:13;;;;;;;6.13;3.10;;;22.70;97.70;;;;;;5095655;28;20205;-86
2022/05/09 11:48:54;;;;;;;12.73;3.50;;;23.00;97.10;;;;;;5094447;28;20537;-85
2022/05/09 11:51:33;;;;;;;5.33;3.60;;;23.00;96.50;;;;;;5095193;28;20201;-85
2022/05/09 11:54:07;;;;;;;8.37;4.10;;;23.10;96.50;;;;;;5095624;28;20220;-86
2022/05/09 11:56:46;;;;;;;4.80;3.87;;;23.10;96.60;;;;;;5094580;28;20209;-91
2022/05/09 11:59:21;;;;;;;5.00;3.60;;;23.20;97.10;;;;;;5095885;28;20217;-89
2022/05/09 12:02:04;;;;;;;7.87;4.33;;;23.50;97.20;;;;;;5092709;28;20200;-87
2022/05/09 12:04:35;;;;;;;4.47;3.57;;;23.40;96.60;;;;;;5080190;28;20602;-85
2022/05/09 12:07:37;;;;;;;7.03;4.03;;;23.40;96.50;;;;;;5074288;28;20195;-85
2022/05/09 12:10:18;;;;;;;10.27;5.30;;;23.20;96.50;;;;;;5072634;28;20209;-86
2022/05/09 12:12:54;;;;;;;8.87;5.27;;;23.40;96.40;;;;;;5074397;28;20245;-85
2022/05/09 12:15:42;;;;;;;8.85;4.85;;;23.40;96.00;;;;;;5073268;28;20431;-86
2022/05/09 12:18:18;;;;;;;5.60;3.67;;;23.50;96.30;;;;;;5074354;28;20206;-86
2022/05/09 12:21:24;;;;;;;5.77;2.97;;;23.70;96.70;;;;;;5074485;28;20197;-86
2022/05/09 12:24:12;;;;;;;5.73;3.90;;;23.90;95.70;;;;;;5082827;28;20201;-87
2022/05/09 12:26:51;;;;;;;9.70;4.73;;;23.90;95.90;;;;;;5070488;28;20632;-85
2022/05/09 12:29:52;;;;;;;6.20;5.13;;;24.00;97.10;;;;;;5082547;28;20570;-85
2022/05/09 12:32:20;;;;;;;7.63;4.87;;;24.00;96.10;;;;;;5082803;28;20284;-86
2022/05/09 12:34:48;;;;;;;10.80;4.70;;;24.10;96.80;;;;;;5088545;28;20287;-87
2022/05/09 12:37:23;;;;;;;12.27;4.97;;;24.20;96.50;;;;;;5094535;28;20205;-86
2022/05/09 12:39:52;;;;;;;6.17;4.33;;;24.00;96.50;;;;;;5094602;28;20192;-85
2022/05/09 12:42:35;;;;;;;10.10;4.73;;;24.10;96.60;;;;;;5094586;28;20197;-86
2022/05/09 12:45:05;;;;;;;10.13;5.17;;;24.20;96.40;;;;;;5094316;28;20216;-87
2022/05/09 12:47:38;;;;;;;11.57;5.07;;;24.30;96.50;;;;;;5094529;28;20292;-87
2022/05/09 12:50:16;;;;;;;7.37;5.20;;;24.30;96.30;;;;;;5094485;28;20565;-87
2022/05/09 12:52:50;;;;;;;10.50;5.77;;;24.10;96.10;;;;;;5093952;28;20195;-86
2022/05/09 12:58:24;;;;;;;6.10;4.47;;;24.20;95.90;;;;;;5057775;28;20202;-86
2022/05/09 13:00:56;;;;;;;6.70;4.97;;;24.40;96.60;;;;;;5094070;28;20224;-87
2022/05/09 13:03:23;;;;;;;9.23;4.47;;;24.50;96.40;;;;;;5094371;28;20564;-86
2022/05/09 13:05:51;;;;;;;5.23;4.37;;;24.50;96.60;;;;;;5093871;28;20243;-87
2022/05/09 13:08:20;;;;;;;7.70;4.30;;;24.60;96.30;;;;;;5094057;28;20204;-86
2022/05/09 13:10:52;;;;;;;6.57;3.50;;;25.00;96.00;;;;;;5094734;28;20212;-85
2022/05/09 13:13:29;;;;;;;4.77;3.73;;;25.30;96.30;;;;;;5094029;28;20709;-86
2022/05/09 13:15:58;;;;;;;7.57;4.50;;;25.40;96.60;;;;;;5093993;28;20581;-84
2022/05/09 13:18:27;;;;;;;7.20;5.37;;;25.20;95.70;;;;;;5094561;28;20201;-87
2022/05/09 13:20:58;;;;;;;11.23;4.80;;;24.80;95.50;;;;;;5094140;28;20212;-87